sensor_id;sensor_type;location;lat;lon;timestamp;P1;durP1;ratioP1;P2;durP2;ratioP2
8319;SDS011;4197;42.130;24.746;2023-05-10T00:01:36;8.43;;;6.47;;
8319;SDS011;4197;42.130;24.746;2023-05-10T00:04:04;8.53;;;6.80;;
8319;SDS011;4197;42.130;24.746;2023-05-10T00:06:32;10.70;;;6.70;;
8319;SDS011;4197;42.130;24.746;2023-05-10T00:09:01;9.87;;;7.10;;
8319;SDS011;4197;42.130;24.746;2023-05-10T00:11:29;8.47;;;6.23;;
8319;SDS011;4197;42.130;24.746;2023-05-10T00:13:58;8.23;;;6.90;;
8319;SDS011;4197;42.130;24.746;2023-05-10T00:16:27;9.90;;;7.17;;
8319;SDS011;4197;42.130;24.746;2023-05-10T00:18:58;10.13;;;6.90;;
8319;SDS011;4197;42.130;24.746;2023-05-10T00:21:27;10.47;;;7.47;;
8319;SDS011;4197;42.130;24.746;2023-05-10T00:23:56;11.97;;;7.07;;
8319;SDS011;4197;42.130;24.746;2023-05-10T00:26:24;12.67;;;6.87;;
8319;SDS011;4197;42.130;24.746;2023-05-10T00:28:52;11.13;;;7.30;;
8319;SDS011;4197;42.130;24.746;2023-05-10T00:31:20;11.47;;;8.10;;
8319;SDS011;4197;42.130;24.746;2023-05-10T00:33:48;15.03;;;7.33;;
8319;SDS011;4197;42.130;24.746;2023-05-10T00:36:18;11.13;;;7.60;;
8319;SDS011;4197;42.130;24.746;2023-05-10T00:38:47;13.13;;;7.83;;
8319;SDS011;4197;42.130;24.746;2023-05-10T00:41:15;9.00;;;7.67;;
8319;SDS011;4197;42.130;24.746;2023-05-10T00:43:45;12.57;;;7.63;;
8319;SDS011;4197;42.130;24.746;2023-05-10T00:46:14;9.80;;;6.90;;
8319;SDS011;4197;42.130;24.746;2023-05-10T00:48:43;12.20;;;7.63;;
8319;SDS011;4197;42.130;24.746;2023-05-10T00:51:13;9.93;;;7.13;;
8319;SDS011;4197;42.130;24.746;2023-05-10T00:53:43;15.07;;;7.27;;
8319;SDS011;4197;42.130;24.746;2023-05-10T00:56:13;10.80;;;7.73;;
8319;SDS011;4197;42.130;24.746;2023-05-10T00:58:43;12.07;;;7.03;;
8319;SDS011;4197;42.130;24.746;2023-05-10T01:01:11;15.60;;;8.30;;
8319;SDS011;4197;42.130;24.746;2023-05-10T01:03:40;9.97;;;7.73;;
8319;SDS011;4197;42.130;24.746;2023-05-10T01:06:08;10.73;;;7.20;;
8319;SDS011;4197;42.130;24.746;2023-05-10T01:08:38;11.27;;;7.37;;
8319;SDS011;4197;42.130;24.746;2023-05-10T01:11:08;10.83;;;7.37;;
8319;SDS011;4197;42.130;24.746;2023-05-10T01:13:38;11.87;;;7.70;;
8319;SDS011;4197;42.130;24.746;2023-05-10T01:16:09;9.97;;;7.53;;
8319;SDS011;4197;42.130;24.746;2023-05-10T01:18:38;10.23;;;7.87;;
8319;SDS011;4197;42.130;24.746;2023-05-10T01:21:13;11.37;;;7.30;;
8319;SDS011;4197;42.130;24.746;2023-05-10T01:26:50;13.50;;;8.30;;
8319;SDS011;4197;42.130;24.746;2023-05-10T01:29:46;11.40;;;8.47;;
8319;SDS011;4197;42.130;24.746;2023-05-10T01:32:45;18.20;;;9.23;;
8319;SDS011;4197;42.130;24.746;2023-05-10T01:35:23;13.37;;;8.63;;
8319;SDS011;4197;42.130;24.746;2023-05-10T01:38:02;12.20;;;9.67;;
8319;SDS011;4197;42.130;24.746;2023-05-10T01:40:39;14.33;;;9.60;;
8319;SDS011;4197;42.130;24.746;2023-05-10T01:43:18;11.10;;;9.87;;
8319;SDS011;4197;42.130;24.746;2023-05-10T01:45:55;15.67;;;10.60;;
8319;SDS011;4197;42.130;24.746;2023-05-10T01:48:32;13.57;;;10.00;;
8319;SDS011;4197;42.130;24.746;2023-05-10T01:51:01;13.97;;;9.87;;
8319;SDS011;4197;42.130;24.746;2023-05-10T01:53:32;14.43;;;10.37;;
8319;SDS011;4197;42.130;24.746;2023-05-10T01:56:04;14.97;;;11.90;;
8319;SDS011;4197;42.130;24.746;2023-05-10T01:58:35;14.00;;;11.13;;
8319;SDS011;4197;42.130;24.746;2023-05-10T02:01:09;13.17;;;10.63;;
8319;SDS011;4197;42.130;24.746;2023-05-10T02:03:41;19.63;;;11.67;;
8319;SDS011;4197;42.130;24.746;2023-05-10T02:06:11;16.30;;;11.70;;
8319;SDS011;4197;42.130;24.746;2023-05-10T02:08:42;16.27;;;11.10;;
8319;SDS011;4197;42.130;24.746;2023-05-10T02:11:13;13.23;;;10.90;;
8319;SDS011;4197;42.130;24.746;2023-05-10T02:13:42;18.47;;;11.57;;
8319;SDS011;4197;42.130;24.746;2023-05-10T02:16:13;15.80;;;12.10;;
8319;SDS011;4197;42.130;24.746;2023-05-10T02:18:45;17.93;;;10.97;;
8319;SDS011;4197;42.130;24.746;2023-05-10T02:21:17;15.30;;;11.47;;
8319;SDS011;4197;42.130;24.746;2023-05-10T02:23:46;14.87;;;11.07;;
8319;SDS011;4197;42.130;24.746;2023-05-10T02:26:18;22.70;;;11.73;;
8319;SDS011;4197;42.130;24.746;2023-05-10T02:28:51;18.90;;;10.73;;
8319;SDS011;4197;42.130;24.746;2023-05-10T02:31:21;15.43;;;10.73;;
8319;SDS011;4197;42.130;24.746;2023-05-10T02:33:52;14.27;;;10.93;;
8319;SDS011;4197;42.130;24.746;2023-05-10T02:36:22;14.77;;;11.40;;
8319;SDS011;4197;42.130;24.746;2023-05-10T02:38:55;15.97;;;10.23;;
8319;SDS011;4197;42.130;24.746;2023-05-10T02:41:26;15.43;;;10.70;;
8319;SDS011;4197;42.130;24.746;2023-05-10T02:43:57;12.80;;;9.93;;
8319;SDS011;4197;42.130;24.746;2023-05-10T02:46:29;15.03;;;10.33;;
8319;SDS011;4197;42.130;24.746;2023-05-10T02:48:59;16.07;;;10.43;;
8319;SDS011;4197;42.130;24.746;2023-05-10T02:51:30;15.90;;;10.93;;
8319;SDS011;4197;42.130;24.746;2023-05-10T02:54:04;16.33;;;11.10;;
8319;SDS011;4197;42.130;24.746;2023-05-10T02:56:40;13.80;;;9.60;;
8319;SDS011;4197;42.130;24.746;2023-05-10T02:59:14;16.03;;;9.83;;
8319;SDS011;4197;42.130;24.746;2023-05-10T03:01:43;15.63;;;9.93;;
8319;SDS011;4197;42.130;24.746;2023-05-10T03:04:13;19.30;;;11.00;;
8319;SDS011;4197;42.130;24.746;2023-05-10T03:06:42;12.43;;;9.83;;
8319;SDS011;4197;42.130;24.746;2023-05-10T03:09:12;14.57;;;9.70;;
8319;SDS011;4197;42.130;24.746;2023-05-10T03:11:47;18.77;;;11.10;;
8319;SDS011;4197;42.130;24.746;2023-05-10T03:17:18;16.00;;;10.23;;
8319;SDS011;4197;42.130;24.746;2023-05-10T03:20:02;18.20;;;9.47;;
8319;SDS011;4197;42.130;24.746;2023-05-10T03:22:36;12.83;;;10.20;;
8319;SDS011;4197;42.130;24.746;2023-05-10T03:25:06;15.03;;;9.97;;
8319;SDS011;4197;42.130;24.746;2023-05-10T03:27:39;19.73;;;10.50;;
8319;SDS011;4197;42.130;24.746;2023-05-10T03:30:10;14.23;;;10.27;;
8319;SDS011;4197;42.130;24.746;2023-05-10T03:32:40;13.07;;;8.93;;
8319;SDS011;4197;42.130;24.746;2023-05-10T03:35:10;17.47;;;10.47;;
8319;SDS011;4197;42.130;24.746;2023-05-10T03:37:41;16.20;;;9.93;;
8319;SDS011;4197;42.130;24.746;2023-05-10T03:40:11;12.53;;;10.10;;
8319;SDS011;4197;42.130;24.746;2023-05-10T03:42:42;16.80;;;10.70;;
8319;SDS011;4197;42.130;24.746;2023-05-10T03:45:11;15.40;;;10.00;;
8319;SDS011;4197;42.130;24.746;2023-05-10T03:47:43;17.77;;;10.07;;
8319;SDS011;4197;42.130;24.746;2023-05-10T03:50:16;16.37;;;10.63;;
8319;SDS011;4197;42.130;24.746;2023-05-10T03:52:46;14.47;;;10.40;;
8319;SDS011;4197;42.130;24.746;2023-05-10T03:55:15;13.83;;;10.87;;
8319;SDS011;4197;42.130;24.746;2023-05-10T03:57:44;21.27;;;10.80;;
8319;SDS011;4197;42.130;24.746;2023-05-10T04:00:14;15.07;;;9.60;;
8319;SDS011;4197;42.130;24.746;2023-05-10T04:02:44;17.73;;;10.47;;
8319;SDS011;4197;42.130;24.746;2023-05-10T04:05:12;19.00;;;10.20;;
8319;SDS011;4197;42.130;24.746;2023-05-10T04:07:42;13.07;;;10.30;;
8319;SDS011;4197;42.130;24.746;2023-05-10T04:10:13;16.10;;;9.97;;
8319;SDS011;4197;42.130;24.746;2023-05-10T04:12:43;19.07;;;10.70;;
8319;SDS011;4197;42.130;24.746;2023-05-10T04:15:14;19.53;;;10.27;;
8319;SDS011;4197;42.130;24.746;2023-05-10T04:17:43;17.73;;;9.67;;
8319;SDS011;4197;42.130;24.746;2023-05-10T04:20:12;24.73;;;10.80;;
8319;SDS011;4197;42.130;24.746;2023-05-10T04:22:46;20.80;;;10.43;;
8319;SDS011;4197;42.130;24.746;2023-05-10T04:25:14;16.27;;;10.43;;
8319;SDS011;4197;42.130;24.746;2023-05-10T04:27:45;15.90;;;10.13;;
8319;SDS011;4197;42.130;24.746;2023-05-10T04:30:14;18.37;;;9.97;;
8319;SDS011;4197;42.130;24.746;2023-05-10T04:32:43;15.87;;;9.23;;
8319;SDS011;4197;42.130;24.746;2023-05-10T04:35:11;11.93;;;9.07;;
8319;SDS011;4197;42.130;24.746;2023-05-10T04:37:41;15.77;;;8.80;;
8319;SDS011;4197;42.130;24.746;2023-05-10T04:40:12;13.67;;;9.30;;
8319;SDS011;4197;42.130;24.746;2023-05-10T04:42:41;13.27;;;8.80;;
8319;SDS011;4197;42.130;24.746;2023-05-10T04:45:11;16.87;;;9.10;;
8319;SDS011;4197;42.130;24.746;2023-05-10T04:47:41;14.93;;;9.13;;
8319;SDS011;4197;42.130;24.746;2023-05-10T04:50:10;15.60;;;8.60;;
8319;SDS011;4197;42.130;24.746;2023-05-10T04:52:40;11.47;;;8.63;;
8319;SDS011;4197;42.130;24.746;2023-05-10T04:55:08;13.53;;;9.10;;
8319;SDS011;4197;42.130;24.746;2023-05-10T04:57:39;10.93;;;8.70;;
8319;SDS011;4197;42.130;24.746;2023-05-10T05:00:07;14.83;;;9.47;;
8319;SDS011;4197;42.130;24.746;2023-05-10T05:02:36;13.43;;;8.07;;
8319;SDS011;4197;42.130;24.746;2023-05-10T05:05:05;10.80;;;8.20;;
8319;SDS011;4197;42.130;24.746;2023-05-10T05:07:35;11.40;;;8.83;;
8319;SDS011;4197;42.130;24.746;2023-05-10T05:10:04;16.13;;;9.90;;
8319;SDS011;4197;42.130;24.746;2023-05-10T05:12:33;12.30;;;8.37;;
8319;SDS011;4197;42.130;24.746;2023-05-10T05:15:04;11.83;;;8.43;;
8319;SDS011;4197;42.130;24.746;2023-05-10T05:17:36;13.83;;;8.57;;
8319;SDS011;4197;42.130;24.746;2023-05-10T05:20:05;15.50;;;8.20;;
8319;SDS011;4197;42.130;24.746;2023-05-10T05:22:35;10.73;;;7.63;;
8319;SDS011;4197;42.130;24.746;2023-05-10T05:25:04;14.07;;;8.23;;
8319;SDS011;4197;42.130;24.746;2023-05-10T05:27:33;13.60;;;7.97;;
8319;SDS011;4197;42.130;24.746;2023-05-10T05:30:04;13.87;;;7.87;;
8319;SDS011;4197;42.130;24.746;2023-05-10T05:32:34;15.70;;;8.70;;
8319;SDS011;4197;42.130;24.746;2023-05-10T05:35:03;13.90;;;8.47;;
8319;SDS011;4197;42.130;24.746;2023-05-10T05:37:32;12.93;;;9.17;;
8319;SDS011;4197;42.130;24.746;2023-05-10T05:40:01;9.97;;;7.83;;
8319;SDS011;4197;42.130;24.746;2023-05-10T05:42:30;12.87;;;8.50;;
8319;SDS011;4197;42.130;24.746;2023-05-10T05:44:59;10.97;;;8.27;;
8319;SDS011;4197;42.130;24.746;2023-05-10T05:47:28;18.27;;;8.63;;
8319;SDS011;4197;42.130;24.746;2023-05-10T05:50:00;11.83;;;8.23;;
8319;SDS011;4197;42.130;24.746;2023-05-10T05:52:28;13.33;;;9.20;;
8319;SDS011;4197;42.130;24.746;2023-05-10T05:54:58;14.97;;;9.33;;
8319;SDS011;4197;42.130;24.746;2023-05-10T05:57:26;17.40;;;11.00;;
8319;SDS011;4197;42.130;24.746;2023-05-10T05:59:54;14.33;;;11.30;;
8319;SDS011;4197;42.130;24.746;2023-05-10T06:02:23;17.30;;;13.13;;
8319;SDS011;4197;42.130;24.746;2023-05-10T06:04:54;16.83;;;11.53;;
8319;SDS011;4197;42.130;24.746;2023-05-10T06:07:22;13.93;;;10.20;;
8319;SDS011;4197;42.130;24.746;2023-05-10T06:09:53;12.00;;;9.30;;
8319;SDS011;4197;42.130;24.746;2023-05-10T06:12:21;16.83;;;9.10;;
8319;SDS011;4197;42.130;24.746;2023-05-10T06:14:49;16.57;;;10.00;;
8319;SDS011;4197;42.130;24.746;2023-05-10T06:17:18;12.87;;;9.07;;
8319;SDS011;4197;42.130;24.746;2023-05-10T06:19:47;21.53;;;10.57;;
8319;SDS011;4197;42.130;24.746;2023-05-10T06:22:18;13.10;;;9.13;;
8319;SDS011;4197;42.130;24.746;2023-05-10T06:24:48;16.83;;;9.53;;
8319;SDS011;4197;42.130;24.746;2023-05-10T06:27:17;13.03;;;8.13;;
8319;SDS011;4197;42.130;24.746;2023-05-10T06:29:45;12.23;;;9.23;;
8319;SDS011;4197;42.130;24.746;2023-05-10T06:32:19;14.60;;;9.63;;
8319;SDS011;4197;42.130;24.746;2023-05-10T06:34:48;10.30;;;8.80;;
8319;SDS011;4197;42.130;24.746;2023-05-10T06:37:21;13.80;;;8.50;;
8319;SDS011;4197;42.130;24.746;2023-05-10T06:39:50;15.90;;;9.10;;
8319;SDS011;4197;42.130;24.746;2023-05-10T06:42:19;18.80;;;9.83;;
8319;SDS011;4197;42.130;24.746;2023-05-10T06:44:48;16.37;;;8.33;;
8319;SDS011;4197;42.130;24.746;2023-05-10T06:47:17;11.70;;;7.83;;
8319;SDS011;4197;42.130;24.746;2023-05-10T06:49:45;24.10;;;13.50;;
8319;SDS011;4197;42.130;24.746;2023-05-10T06:52:13;12.07;;;6.90;;
8319;SDS011;4197;42.130;24.746;2023-05-10T06:54:44;9.87;;;7.47;;
8319;SDS011;4197;42.130;24.746;2023-05-10T06:57:12;15.23;;;9.40;;
8319;SDS011;4197;42.130;24.746;2023-05-10T06:59:57;10.60;;;7.17;;
8319;SDS011;4197;42.130;24.746;2023-05-10T07:02:25;9.60;;;6.37;;
8319;SDS011;4197;42.130;24.746;2023-05-10T07:04:55;10.13;;;6.70;;
8319;SDS011;4197;42.130;24.746;2023-05-10T07:07:28;8.40;;;6.83;;
8319;SDS011;4197;42.130;24.746;2023-05-10T07:09:58;8.23;;;6.37;;
8319;SDS011;4197;42.130;24.746;2023-05-10T07:12:27;13.87;;;7.07;;
8319;SDS011;4197;42.130;24.746;2023-05-10T07:14:55;11.40;;;6.87;;
8319;SDS011;4197;42.130;24.746;2023-05-10T07:17:24;7.97;;;6.03;;
8319;SDS011;4197;42.130;24.746;2023-05-10T07:19:52;12.83;;;6.33;;
8319;SDS011;4197;42.130;24.746;2023-05-10T07:22:23;11.70;;;6.27;;
8319;SDS011;4197;42.130;24.746;2023-05-10T07:24:51;10.00;;;6.23;;
8319;SDS011;4197;42.130;24.746;2023-05-10T07:27:21;8.87;;;6.23;;
8319;SDS011;4197;42.130;24.746;2023-05-10T07:29:50;8.43;;;5.93;;
8319;SDS011;4197;42.130;24.746;2023-05-10T07:32:19;11.83;;;6.50;;
8319;SDS011;4197;42.130;24.746;2023-05-10T07:34:51;9.47;;;6.00;;
8319;SDS011;4197;42.130;24.746;2023-05-10T07:37:19;14.33;;;6.23;;
8319;SDS011;4197;42.130;24.746;2023-05-10T07:39:48;10.33;;;6.20;;
8319;SDS011;4197;42.130;24.746;2023-05-10T07:42:18;8.63;;;6.17;;
8319;SDS011;4197;42.130;24.746;2023-05-10T07:44:47;8.20;;;5.63;;
8319;SDS011;4197;42.130;24.746;2023-05-10T07:47:17;10.23;;;6.23;;
8319;SDS011;4197;42.130;24.746;2023-05-10T07:49:46;10.07;;;5.43;;
8319;SDS011;4197;42.130;24.746;2023-05-10T07:52:16;14.80;;;6.17;;
8319;SDS011;4197;42.130;24.746;2023-05-10T07:54:48;6.53;;;4.87;;
8319;SDS011;4197;42.130;24.746;2023-05-10T07:57:16;9.67;;;5.93;;
8319;SDS011;4197;42.130;24.746;2023-05-10T07:59:46;7.83;;;5.00;;
8319;SDS011;4197;42.130;24.746;2023-05-10T08:02:18;10.03;;;6.40;;
8319;SDS011;4197;42.130;24.746;2023-05-10T08:04:46;10.70;;;6.38;;
8319;SDS011;4197;42.130;24.746;2023-05-10T08:07:15;12.63;;;5.32;;
8319;SDS011;4197;42.130;24.746;2023-05-10T08:09:43;6.97;;;4.95;;
8319;SDS011;4197;42.130;24.746;2023-05-10T08:12:11;6.97;;;4.80;;
8319;SDS011;4197;42.130;24.746;2023-05-10T08:14:39;7.13;;;4.88;;
8319;SDS011;4197;42.130;24.746;2023-05-10T08:17:10;5.93;;;5.03;;
8319;SDS011;4197;42.130;24.746;2023-05-10T08:19:38;7.25;;;5.03;;
8319;SDS011;4197;42.130;24.746;2023-05-10T08:22:07;7.05;;;5.18;;
8319;SDS011;4197;42.130;24.746;2023-05-10T08:24:36;12.38;;;5.65;;
8319;SDS011;4197;42.130;24.746;2023-05-10T08:27:05;9.03;;;6.33;;
8319;SDS011;4197;42.130;24.746;2023-05-10T08:29:33;8.70;;;4.88;;
8319;SDS011;4197;42.130;24.746;2023-05-10T08:32:17;9.98;;;6.35;;
8319;SDS011;4197;42.130;24.746;2023-05-10T08:34:45;10.93;;;5.40;;
8319;SDS011;4197;42.130;24.746;2023-05-10T08:37:13;5.45;;;4.60;;
8319;SDS011;4197;42.130;24.746;2023-05-10T08:39:41;8.63;;;4.88;;
8319;SDS011;4197;42.130;24.746;2023-05-10T08:42:11;8.55;;;4.95;;
8319;SDS011;4197;42.130;24.746;2023-05-10T08:44:44;11.93;;;5.50;;
8319;SDS011;4197;42.130;24.746;2023-05-10T08:47:17;7.50;;;4.32;;
8319;SDS011;4197;42.130;24.746;2023-05-10T08:49:47;7.67;;;5.23;;
8319;SDS011;4197;42.130;24.746;2023-05-10T08:52:17;8.00;;;5.03;;
8319;SDS011;4197;42.130;24.746;2023-05-10T08:54:46;7.90;;;5.50;;
8319;SDS011;4197;42.130;24.746;2023-05-10T08:57:15;9.13;;;5.27;;
8319;SDS011;4197;42.130;24.746;2023-05-10T08:59:44;8.02;;;5.10;;
8319;SDS011;4197;42.130;24.746;2023-05-10T09:02:12;14.40;;;6.53;;
8319;SDS011;4197;42.130;24.746;2023-05-10T09:04:45;8.27;;;5.10;;
8319;SDS011;4197;42.130;24.746;2023-05-10T09:07:15;7.87;;;5.17;;
8319;SDS011;4197;42.130;24.746;2023-05-10T09:09:45;8.17;;;5.10;;
8319;SDS011;4197;42.130;24.746;2023-05-10T09:12:21;9.40;;;5.63;;
8319;SDS011;4197;42.130;24.746;2023-05-10T09:14:50;10.57;;;5.53;;
8319;SDS011;4197;42.130;24.746;2023-05-10T09:17:20;6.50;;;4.93;;
8319;SDS011;4197;42.130;24.746;2023-05-10T09:19:58;7.35;;;5.53;;
8319;SDS011;4197;42.130;24.746;2023-05-10T09:22:27;6.60;;;5.68;;
8319;SDS011;4197;42.130;24.746;2023-05-10T09:25:05;7.07;;;5.80;;
8319;SDS011;4197;42.130;24.746;2023-05-10T09:27:34;5.07;;;4.57;;
8319;SDS011;4197;42.130;24.746;2023-05-10T09:30:04;8.15;;;5.15;;
8319;SDS011;4197;42.130;24.746;2023-05-10T09:32:38;5.90;;;5.00;;
8319;SDS011;4197;42.130;24.746;2023-05-10T09:35:10;5.63;;;5.07;;
8319;SDS011;4197;42.130;24.746;2023-05-10T09:37:41;5.87;;;4.77;;
8319;SDS011;4197;42.130;24.746;2023-05-10T09:40:12;5.70;;;4.47;;
8319;SDS011;4197;42.130;24.746;2023-05-10T09:42:50;7.60;;;4.77;;
8319;SDS011;4197;42.130;24.746;2023-05-10T09:45:21;7.60;;;5.57;;
8319;SDS011;4197;42.130;24.746;2023-05-10T09:47:50;6.05;;;5.45;;
8319;SDS011;4197;42.130;24.746;2023-05-10T09:50:21;8.82;;;4.70;;
8319;SDS011;4197;42.130;24.746;2023-05-10T09:52:50;7.85;;;4.88;;
8319;SDS011;4197;42.130;24.746;2023-05-10T09:55:22;8.07;;;4.93;;
8319;SDS011;4197;42.130;24.746;2023-05-10T09:57:58;7.07;;;5.35;;
8319;SDS011;4197;42.130;24.746;2023-05-10T10:00:33;9.25;;;5.22;;
8319;SDS011;4197;42.130;24.746;2023-05-10T10:03:03;7.95;;;4.85;;
8319;SDS011;4197;42.130;24.746;2023-05-10T10:05:34;8.48;;;5.20;;
8319;SDS011;4197;42.130;24.746;2023-05-10T10:08:04;7.40;;;4.53;;
8319;SDS011;4197;42.130;24.746;2023-05-10T10:10:33;6.40;;;4.68;;
8319;SDS011;4197;42.130;24.746;2023-05-10T10:13:02;6.68;;;4.53;;
8319;SDS011;4197;42.130;24.746;2023-05-10T10:15:31;6.55;;;4.75;;
8319;SDS011;4197;42.130;24.746;2023-05-10T10:18:01;5.35;;;4.78;;
8319;SDS011;4197;42.130;24.746;2023-05-10T10:20:31;6.03;;;4.35;;
8319;SDS011;4197;42.130;24.746;2023-05-10T10:23:01;7.75;;;5.25;;
8319;SDS011;4197;42.130;24.746;2023-05-10T10:25:30;6.13;;;4.28;;
8319;SDS011;4197;42.130;24.746;2023-05-10T10:28:02;8.70;;;4.90;;
8319;SDS011;4197;42.130;24.746;2023-05-10T10:30:40;11.10;;;4.65;;
8319;SDS011;4197;42.130;24.746;2023-05-10T10:33:18;5.18;;;4.68;;
8319;SDS011;4197;42.130;24.746;2023-05-10T10:36:07;7.03;;;5.15;;
8319;SDS011;4197;42.130;24.746;2023-05-10T10:38:37;10.45;;;5.72;;
8319;SDS011;4197;42.130;24.746;2023-05-10T10:41:29;10.68;;;5.03;;
8319;SDS011;4197;42.130;24.746;2023-05-10T10:47:21;7.38;;;5.07;;
8319;SDS011;4197;42.130;24.746;2023-05-10T10:50:02;4.93;;;4.07;;
8319;SDS011;4197;42.130;24.746;2023-05-10T10:52:33;6.82;;;5.45;;
8319;SDS011;4197;42.130;24.746;2023-05-10T10:55:04;6.78;;;5.60;;
8319;SDS011;4197;42.130;24.746;2023-05-10T10:57:42;9.13;;;5.65;;
8319;SDS011;4197;42.130;24.746;2023-05-10T11:00:28;7.80;;;5.05;;
8319;SDS011;4197;42.130;24.746;2023-05-10T11:02:58;14.35;;;6.13;;
8319;SDS011;4197;42.130;24.746;2023-05-10T11:08:11;8.35;;;5.10;;
8319;SDS011;4197;42.130;24.746;2023-05-10T11:10:49;5.03;;;4.53;;
8319;SDS011;4197;42.130;24.746;2023-05-10T11:13:31;9.48;;;5.43;;
8319;SDS011;4197;42.130;24.746;2023-05-10T11:16:16;8.27;;;5.95;;
8319;SDS011;4197;42.130;24.746;2023-05-10T11:18:53;8.73;;;4.85;;
8319;SDS011;4197;42.130;24.746;2023-05-10T11:21:27;6.65;;;5.43;;
8319;SDS011;4197;42.130;24.746;2023-05-10T11:23:58;6.53;;;5.45;;
8319;SDS011;4197;42.130;24.746;2023-05-10T11:26:30;5.45;;;4.95;;
8319;SDS011;4197;42.130;24.746;2023-05-10T11:29:01;10.00;;;5.97;;
8319;SDS011;4197;42.130;24.746;2023-05-10T11:31:31;8.07;;;5.30;;
8319;SDS011;4197;42.130;24.746;2023-05-10T11:34:00;9.07;;;5.70;;
8319;SDS011;4197;42.130;24.746;2023-05-10T11:36:32;5.32;;;4.55;;
8319;SDS011;4197;42.130;24.746;2023-05-10T11:39:04;9.10;;;5.20;;
8319;SDS011;4197;42.130;24.746;2023-05-10T11:41:34;5.53;;;4.57;;
8319;SDS011;4197;42.130;24.746;2023-05-10T11:44:02;7.80;;;5.05;;
8319;SDS011;4197;42.130;24.746;2023-05-10T11:46:30;10.27;;;5.25;;
8319;SDS011;4197;42.130;24.746;2023-05-10T11:48:59;13.82;;;4.80;;
8319;SDS011;4197;42.130;24.746;2023-05-10T11:51:32;6.70;;;4.30;;
8319;SDS011;4197;42.130;24.746;2023-05-10T11:54:06;7.30;;;4.97;;
8319;SDS011;4197;42.130;24.746;2023-05-10T11:56:36;6.90;;;4.90;;
8319;SDS011;4197;42.130;24.746;2023-05-10T11:59:05;5.43;;;4.93;;
8319;SDS011;4197;42.130;24.746;2023-05-10T12:01:34;5.88;;;5.25;;
8319;SDS011;4197;42.130;24.746;2023-05-10T12:04:05;9.15;;;6.45;;
8319;SDS011;4197;42.130;24.746;2023-05-10T12:06:37;6.65;;;5.35;;
8319;SDS011;4197;42.130;24.746;2023-05-10T12:09:09;5.32;;;4.53;;
8319;SDS011;4197;42.130;24.746;2023-05-10T12:11:38;6.70;;;5.45;;
8319;SDS011;4197;42.130;24.746;2023-05-10T12:14:10;10.80;;;6.50;;
8319;SDS011;4197;42.130;24.746;2023-05-10T12:16:38;8.60;;;6.63;;
8319;SDS011;4197;42.130;24.746;2023-05-10T12:19:07;7.40;;;5.55;;
8319;SDS011;4197;42.130;24.746;2023-05-10T12:21:36;8.60;;;6.45;;
8319;SDS011;4197;42.130;24.746;2023-05-10T12:24:05;5.72;;;4.75;;
8319;SDS011;4197;42.130;24.746;2023-05-10T12:26:36;6.97;;;5.68;;
8319;SDS011;4197;42.130;24.746;2023-05-10T12:29:13;7.32;;;6.53;;
8319;SDS011;4197;42.130;24.746;2023-05-10T12:31:52;7.38;;;6.20;;
8319;SDS011;4197;42.130;24.746;2023-05-10T12:34:23;10.70;;;6.78;;
8319;SDS011;4197;42.130;24.746;2023-05-10T12:36:52;9.57;;;6.25;;
8319;SDS011;4197;42.130;24.746;2023-05-10T12:39:22;7.85;;;6.68;;
8319;SDS011;4197;42.130;24.746;2023-05-10T12:41:53;7.35;;;6.40;;
8319;SDS011;4197;42.130;24.746;2023-05-10T12:44:21;9.07;;;8.02;;
8319;SDS011;4197;42.130;24.746;2023-05-10T12:46:50;11.45;;;7.90;;
8319;SDS011;4197;42.130;24.746;2023-05-10T12:49:19;8.35;;;6.78;;
8319;SDS011;4197;42.130;24.746;2023-05-10T12:51:47;8.27;;;7.07;;
8319;SDS011;4197;42.130;24.746;2023-05-10T12:54:15;18.00;;;8.43;;
8319;SDS011;4197;42.130;24.746;2023-05-10T12:56:43;8.65;;;7.60;;
8319;SDS011;4197;42.130;24.746;2023-05-10T12:59:13;8.25;;;6.63;;
8319;SDS011;4197;42.130;24.746;2023-05-10T13:01:41;6.78;;;6.18;;
8319;SDS011;4197;42.130;24.746;2023-05-10T13:04:10;10.70;;;7.90;;
8319;SDS011;4197;42.130;24.746;2023-05-10T13:06:41;7.88;;;6.63;;
8319;SDS011;4197;42.130;24.746;2023-05-10T13:09:09;9.20;;;6.25;;
8319;SDS011;4197;42.130;24.746;2023-05-10T13:11:38;7.13;;;6.43;;
8319;SDS011;4197;42.130;24.746;2023-05-10T13:14:06;9.77;;;7.18;;
8319;SDS011;4197;42.130;24.746;2023-05-10T13:16:36;7.30;;;6.60;;
8319;SDS011;4197;42.130;24.746;2023-05-10T13:19:04;9.60;;;7.50;;
8319;SDS011;4197;42.130;24.746;2023-05-10T13:21:32;13.43;;;7.50;;
8319;SDS011;4197;42.130;24.746;2023-05-10T13:24:01;11.57;;;7.80;;
8319;SDS011;4197;42.130;24.746;2023-05-10T13:26:29;7.93;;;7.22;;
8319;SDS011;4197;42.130;24.746;2023-05-10T13:28:57;10.13;;;7.10;;
8319;SDS011;4197;42.130;24.746;2023-05-10T13:31:26;14.00;;;7.88;;
8319;SDS011;4197;42.130;24.746;2023-05-10T13:33:56;10.05;;;6.55;;
8319;SDS011;4197;42.130;24.746;2023-05-10T13:36:27;8.80;;;6.80;;
8319;SDS011;4197;42.130;24.746;2023-05-10T13:38:55;7.68;;;6.43;;
8319;SDS011;4197;42.130;24.746;2023-05-10T13:41:23;9.60;;;7.30;;
8319;SDS011;4197;42.130;24.746;2023-05-10T13:43:52;13.65;;;8.18;;
8319;SDS011;4197;42.130;24.746;2023-05-10T13:46:20;11.32;;;7.55;;
8319;SDS011;4197;42.130;24.746;2023-05-10T13:48:49;10.70;;;6.95;;
8319;SDS011;4197;42.130;24.746;2023-05-10T13:51:19;9.57;;;7.63;;
8319;SDS011;4197;42.130;24.746;2023-05-10T13:53:48;13.38;;;8.35;;
8319;SDS011;4197;42.130;24.746;2023-05-10T13:56:16;14.23;;;9.07;;
8319;SDS011;4197;42.130;24.746;2023-05-10T13:58:44;10.02;;;8.15;;
8319;SDS011;4197;42.130;24.746;2023-05-10T14:01:13;9.82;;;8.50;;
8319;SDS011;4197;42.130;24.746;2023-05-10T14:03:41;9.02;;;8.13;;
8319;SDS011;4197;42.130;24.746;2023-05-10T14:06:10;18.83;;;9.60;;
8319;SDS011;4197;42.130;24.746;2023-05-10T14:08:40;12.82;;;10.52;;
8319;SDS011;4197;42.130;24.746;2023-05-10T14:11:09;14.50;;;11.27;;
8319;SDS011;4197;42.130;24.746;2023-05-10T14:13:37;23.52;;;10.75;;
8319;SDS011;4197;42.130;24.746;2023-05-10T14:16:06;13.98;;;9.07;;
8319;SDS011;4197;42.130;24.746;2023-05-10T14:18:36;16.30;;;8.60;;
8319;SDS011;4197;42.130;24.746;2023-05-10T14:21:04;17.55;;;8.25;;
8319;SDS011;4197;42.130;24.746;2023-05-10T14:23:32;11.55;;;8.32;;
8319;SDS011;4197;42.130;24.746;2023-05-10T14:26:02;18.65;;;8.77;;
8319;SDS011;4197;42.130;24.746;2023-05-10T14:28:31;10.80;;;8.15;;
8319;SDS011;4197;42.130;24.746;2023-05-10T14:30:59;17.35;;;8.80;;
8319;SDS011;4197;42.130;24.746;2023-05-10T14:33:27;9.20;;;7.55;;
8319;SDS011;4197;42.130;24.746;2023-05-10T14:35:56;13.18;;;7.28;;
8319;SDS011;4197;42.130;24.746;2023-05-10T14:38:24;9.73;;;7.32;;
8319;SDS011;4197;42.130;24.746;2023-05-10T14:40:53;11.57;;;6.68;;
8319;SDS011;4197;42.130;24.746;2023-05-10T14:43:23;8.27;;;5.82;;
8319;SDS011;4197;42.130;24.746;2023-05-10T14:45:51;6.78;;;6.10;;
8319;SDS011;4197;42.130;24.746;2023-05-10T14:48:19;10.63;;;7.10;;
8319;SDS011;4197;42.130;24.746;2023-05-10T14:50:49;12.75;;;6.80;;
8319;SDS011;4197;42.130;24.746;2023-05-10T14:56:06;13.75;;;8.85;;
8319;SDS011;4197;42.130;24.746;2023-05-10T14:58:36;7.22;;;6.32;;
8319;SDS011;4197;42.130;24.746;2023-05-10T15:01:04;9.65;;;6.55;;
8319;SDS011;4197;42.130;24.746;2023-05-10T15:03:33;16.42;;;6.30;;
8319;SDS011;4197;42.130;24.746;2023-05-10T15:06:03;7.78;;;6.93;;
8319;SDS011;4197;42.130;24.746;2023-05-10T15:08:31;10.73;;;6.60;;
8319;SDS011;4197;42.130;24.746;2023-05-10T15:10:59;10.18;;;6.25;;
8319;SDS011;4197;42.130;24.746;2023-05-10T15:13:28;9.65;;;8.40;;
8319;SDS011;4197;42.130;24.746;2023-05-10T15:15:58;9.65;;;7.28;;
8319;SDS011;4197;42.130;24.746;2023-05-10T15:18:27;6.35;;;5.75;;
8319;SDS011;4197;42.130;24.746;2023-05-10T15:20:55;8.48;;;6.22;;
8319;SDS011;4197;42.130;24.746;2023-05-10T15:23:25;7.35;;;6.63;;
8319;SDS011;4197;42.130;24.746;2023-05-10T15:25:53;9.77;;;6.05;;